createdAt,value
2022-11-29T00:01:13.264Z,66.32
2022-11-29T00:03:40.243Z,65.61
2022-11-29T00:06:09.562Z,65.63
2022-11-29T00:08:36.760Z,65.20
2022-11-29T00:11:06.206Z,65.59
2022-11-29T00:13:33.188Z,65.09
2022-11-29T00:16:05.065Z,65.55
2022-11-29T00:18:32.394Z,64.92
2022-11-29T00:20:59.090Z,64.53
2022-11-29T00:23:26.542Z,64.56
2022-11-29T00:25:53.371Z,64.76
2022-11-29T00:28:20.147Z,64.11
2022-11-29T00:30:47.341Z,63.81
2022-11-29T00:33:14.080Z,63.26
2022-11-29T00:35:40.653Z,63.05
2022-11-29T00:38:07.316Z,63.16
2022-11-29T00:40:33.871Z,62.75
2022-11-29T00:43:00.626Z,62.03
2022-11-29T00:48:08.013Z,61.36
2022-11-29T00:50:34.783Z,60.96
2022-11-29T00:53:01.487Z,59.63
2022-11-29T00:55:28.088Z,59.75
2022-11-29T00:57:54.737Z,59.12
2022-11-29T01:00:21.450Z,58.65
2022-11-29T01:02:48.241Z,58.83
2022-11-29T01:05:15.021Z,57.59
2022-11-29T01:07:41.634Z,57.63
2022-11-29T01:10:08.883Z,56.70
2022-11-29T01:12:39.908Z,57.71
2022-11-29T01:15:11.489Z,56.51
2022-11-29T01:17:39.774Z,56.54
2022-11-29T01:20:10.267Z,56.65
2022-11-29T01:22:38.570Z,56.22
2022-11-29T01:25:07.441Z,56.36
2022-11-29T01:27:34.637Z,56.65
2022-11-29T01:30:01.206Z,56.48
2022-11-29T01:32:27.860Z,57.34
2022-11-29T01:34:54.499Z,57.01
2022-11-29T01:37:21.104Z,57.24
2022-11-29T01:39:50.792Z,57.02
2022-11-29T01:42:17.504Z,57.49
2022-11-29T01:44:50.197Z,56.78
2022-11-29T01:47:18.663Z,57.04
2022-11-29T01:49:48.157Z,57.01
2022-11-29T01:52:21.049Z,56.93
2022-11-29T01:54:56.120Z,56.60
2022-11-29T01:57:23.243Z,57.23
2022-11-29T01:59:54.140Z,56.97
2022-11-29T02:02:28.253Z,56.71
2022-11-29T02:04:58.406Z,55.93
2022-11-29T02:07:25.168Z,56.40
2022-11-29T02:09:51.866Z,56.06
2022-11-29T02:12:39.625Z,55.70
2022-11-29T02:15:18.422Z,56.13
2022-11-29T02:18:14.736Z,55.83
2022-11-29T02:20:57.320Z,56.24
2022-11-29T02:23:48.498Z,56.22
2022-11-29T02:26:21.753Z,56.41
2022-11-29T02:29:20.934Z,56.39
2022-11-29T02:32:09.384Z,56.35
2022-11-29T02:34:52.125Z,56.36
2022-11-29T02:37:22.634Z,55.88
2022-11-29T02:40:07.038Z,56.58
2022-11-29T02:42:54.094Z,56.30
2022-11-29T02:45:35.873Z,56.58
2022-11-29T02:48:21.230Z,56.46
2022-11-29T02:50:59.021Z,57.37
2022-11-29T02:53:49.974Z,56.75
2022-11-29T02:56:35.170Z,56.69
2022-11-29T02:59:20.090Z,57.29
2022-11-29T03:02:02.135Z,56.86
2022-11-29T03:04:37.868Z,57.16
2022-11-29T03:07:34.082Z,56.94
2022-11-29T03:10:31.766Z,57.47
2022-11-29T03:12:59.859Z,56.75
2022-11-29T03:15:38.761Z,56.71
2022-11-29T03:18:08.406Z,56.93
2022-11-29T03:20:57.864Z,57.40
2022-11-29T03:23:33.340Z,57.43
2022-11-29T03:26:32.073Z,57.66
2022-11-29T03:29:11.660Z,57.87
2022-11-29T03:31:49.997Z,58.16
2022-11-29T03:34:26.191Z,58.01
2022-11-29T03:37:04.137Z,58.37
2022-11-29T03:39:41.563Z,58.49
2022-11-29T03:42:14.185Z,58.16
2022-11-29T03:45:03.041Z,58.22
2022-11-29T03:47:37.962Z,57.82
2022-11-29T03:50:40.464Z,58.02
2022-11-29T03:53:33.797Z,57.52
2022-11-29T03:56:03.917Z,58.32
2022-11-29T03:59:00.729Z,57.35
2022-11-29T04:01:36.474Z,57.58
2022-11-29T04:04:15.954Z,58.70
2022-11-29T04:07:00.930Z,58.02
2022-11-29T04:09:36.605Z,58.44
2022-11-29T04:14:01.561Z,58.82
2022-11-29T04:16:25.548Z,59.70
2022-11-29T04:19:29.459Z,58.83
2022-11-29T04:22:14.535Z,60.15
2022-11-29T04:25:15.229Z,60.83
2022-11-29T04:27:49.372Z,61.12
2022-11-29T04:30:21.630Z,61.05
2022-11-29T04:33:25.719Z,61.42
2022-11-29T04:36:33.552Z,61.96
2022-11-29T04:39:13.530Z,62.03
2022-11-29T04:42:05.032Z,62.86
2022-11-29T04:44:55.676Z,63.37
2022-11-29T04:47:49.112Z,63.64
2022-11-29T04:50:38.914Z,63.90
2022-11-29T04:53:27.105Z,64.62
2022-11-29T04:56:23.709Z,65.24
2022-11-29T04:59:26.264Z,65.64
2022-11-29T05:02:05.006Z,66.51
2022-11-29T05:04:40.604Z,67.51
2022-11-29T05:07:52.231Z,67.87
2022-11-29T05:10:39.515Z,68.90
2022-11-29T05:13:30.934Z,68.61
2022-11-29T05:16:19.967Z,69.57
2022-11-29T05:19:17.432Z,69.50
2022-11-29T05:22:39.216Z,69.94
2022-11-29T05:25:30.485Z,69.76
2022-11-29T05:28:10.367Z,70.04
2022-11-29T05:30:55.919Z,70.65
2022-11-29T05:33:55.359Z,70.22
2022-11-29T05:36:42.241Z,70.38
2022-11-29T05:39:50.027Z,70.71
2022-11-29T05:42:46.774Z,70.66
2022-11-29T05:45:37.052Z,70.83
2022-11-29T05:48:21.901Z,70.50
2022-11-29T05:51:23.557Z,70.91
2022-11-29T05:54:13.338Z,71.25
2022-11-29T05:56:58.214Z,71.84
2022-11-29T05:59:28.677Z,71.57
2022-11-29T06:02:20.391Z,72.15
2022-11-29T06:05:13.108Z,71.99
2022-11-29T06:14:02.942Z,72.03
2022-11-29T06:17:25.957Z,72.14
2022-11-29T06:20:05.042Z,72.60
2022-11-29T06:22:44.130Z,72.11
2022-11-29T06:25:39.288Z,71.90
2022-11-29T06:28:27.773Z,72.08
2022-11-29T06:31:00.985Z,71.94
2022-11-29T06:33:56.349Z,71.30
2022-11-29T06:36:25.640Z,71.58
2022-11-29T06:38:52.366Z,72.33
2022-11-29T06:41:22.204Z,71.54
2022-11-29T06:43:49.712Z,72.01
2022-11-29T06:46:31.956Z,70.91
2022-11-29T06:49:17.225Z,70.97
2022-11-29T06:52:02.916Z,70.82
2022-11-29T06:55:06.030Z,70.97
2022-11-29T06:57:51.022Z,70.42
2022-11-29T07:00:24.071Z,69.83
2022-11-29T07:03:15.526Z,69.50
2022-11-29T07:05:42.658Z,69.58
2022-11-29T07:08:14.990Z,69.72
2022-11-29T07:10:43.021Z,69.36
2022-11-29T07:13:13.926Z,69.32
2022-11-29T07:16:12.575Z,69.50
2022-11-29T07:18:47.703Z,69.05
2022-11-29T07:21:33.301Z,68.98
2022-11-29T07:24:23.634Z,68.84
2022-11-29T07:27:01.277Z,68.84
2022-11-29T07:29:53.419Z,68.89
2022-11-29T07:32:34.402Z,69.69
2022-11-29T07:35:24.200Z,69.19
2022-11-29T07:37:57.937Z,69.36
2022-11-29T07:40:37.931Z,70.21
2022-11-29T07:43:14.423Z,69.59
2022-11-29T07:45:41.200Z,69.67
2022-11-29T07:48:10.989Z,69.79
2022-11-29T07:50:41.281Z,69.89
2022-11-29T07:53:20.515Z,69.89
2022-11-29T07:55:48.392Z,69.62
2022-11-29T07:58:17.420Z,70.27
2022-11-29T08:00:46.859Z,69.53
2022-11-29T08:03:13.672Z,69.42
2022-11-29T08:05:40.791Z,69.57
2022-11-29T08:08:07.727Z,69.45
2022-11-29T08:10:35.688Z,69.37
2022-11-29T08:13:02.774Z,69.14
2022-11-29T08:15:29.715Z,69.70
2022-11-29T08:17:56.384Z,69.89
2022-11-29T08:20:23.160Z,69.28
2022-11-29T08:22:59.032Z,69.25
2022-11-29T08:25:26.969Z,69.38
2022-11-29T08:27:54.692Z,70.02
2022-11-29T08:30:22.466Z,69.37
2022-11-29T08:32:52.034Z,69.73
2022-11-29T08:35:22.583Z,69.58
2022-11-29T08:37:49.720Z,68.95
2022-11-29T08:40:17.447Z,69.48
2022-11-29T08:42:44.178Z,69.86
2022-11-29T08:45:11.915Z,69.77
2022-11-29T08:47:39.089Z,70.10
2022-11-29T08:50:10.123Z,69.96
2022-11-29T08:52:59.361Z,69.87
2022-11-29T08:55:30.681Z,69.98
2022-11-29T08:58:06.783Z,70.18
2022-11-29T09:00:34.367Z,69.60
2022-11-29T09:03:25.014Z,70.03
2022-11-29T09:05:52.512Z,70.15
2022-11-29T09:08:19.338Z,70.51
2022-11-29T09:10:47.408Z,70.13
2022-11-29T09:13:14.160Z,70.29
2022-11-29T09:15:43.322Z,70.02
2022-11-29T09:18:09.943Z,69.94
2022-11-29T09:20:36.832Z,69.68
2022-11-29T09:23:03.975Z,69.62
2022-11-29T09:25:30.548Z,70.34
2022-11-29T09:28:02.833Z,70.07
2022-11-29T09:30:31.587Z,70.44
2022-11-29T09:33:05.069Z,70.28
2022-11-29T09:35:31.872Z,70.39
2022-11-29T09:37:58.554Z,70.00
2022-11-29T09:40:33.893Z,70.77
2022-11-29T09:43:04.031Z,70.35
2022-11-29T09:45:36.525Z,70.49
2022-11-29T09:48:53.113Z,70.06
2022-11-29T09:52:07.440Z,69.76
2022-11-29T09:54:33.978Z,70.42
2022-11-29T09:57:10.330Z,70.36
2022-11-29T09:59:43.610Z,70.61
2022-11-29T10:02:42.199Z,70.13
2022-11-29T10:05:17.054Z,70.28
2022-11-29T10:07:56.109Z,70.04
2022-11-29T10:10:31.295Z,69.75
2022-11-29T10:13:23.501Z,69.32
2022-11-29T10:15:56.282Z,69.75
2022-11-29T10:18:28.872Z,69.29
2022-11-29T10:20:59.855Z,69.17
2022-11-29T10:23:33.250Z,69.48
2022-11-29T10:25:59.938Z,69.20
2022-11-29T10:28:31.575Z,69.05
2022-11-29T10:31:08.480Z,68.63
2022-11-29T10:33:41.878Z,68.58
2022-11-29T10:36:40.739Z,68.39
2022-11-29T10:39:18.838Z,68.46
2022-11-29T10:41:46.285Z,69.29
2022-11-29T10:44:14.977Z,68.81
2022-11-29T10:46:41.666Z,68.97
2022-11-29T10:49:14.943Z,69.54
2022-11-29T10:51:41.752Z,69.74
2022-11-29T10:54:35.712Z,69.53
2022-11-29T10:57:02.635Z,70.35
2022-11-29T10:59:34.912Z,70.66
2022-11-29T11:02:01.988Z,69.92
2022-11-29T11:04:37.157Z,69.99
2022-11-29T11:07:06.968Z,69.54
2022-11-29T11:09:48.610Z,69.58
2022-11-29T11:12:15.360Z,69.62
2022-11-29T11:14:43.745Z,70.10
2022-11-29T11:17:26.442Z,69.36
2022-11-29T11:19:58.469Z,69.30
2022-11-29T11:22:32.573Z,69.44
2022-11-29T11:25:06.787Z,69.32
2022-11-29T11:27:37.217Z,69.31
2022-11-29T11:30:06.293Z,68.27
2022-11-29T11:32:33.152Z,68.44
2022-11-29T11:35:02.146Z,68.52
2022-11-29T11:37:35.803Z,68.62
2022-11-29T11:40:29.220Z,68.06
2022-11-29T11:43:01.976Z,67.95
2022-11-29T11:45:33.444Z,67.56
2022-11-29T11:48:12.736Z,67.25
2022-11-29T11:50:54.299Z,66.74
2022-11-29T11:53:27.717Z,66.69
2022-11-29T11:56:02.618Z,66.66
2022-11-29T11:58:32.413Z,66.74
2022-11-29T12:01:12.414Z,66.17
2022-11-29T12:03:54.835Z,66.25
2022-11-29T12:06:59.875Z,65.39
2022-11-29T12:09:34.056Z,65.01
2022-11-29T12:12:34.685Z,64.96
2022-11-29T12:15:06.205Z,64.57
2022-11-29T12:17:50.019Z,64.54
2022-11-29T12:20:54.181Z,64.70
2022-11-29T12:23:40.873Z,64.50
2022-11-29T12:29:19.942Z,64.44
2022-11-29T12:32:10.451Z,64.72
2022-11-29T12:34:37.082Z,64.67
2022-11-29T12:37:30.027Z,65.04
2022-11-29T12:40:18.016Z,65.00
2022-11-29T12:43:15.301Z,64.90
2022-11-29T12:46:22.822Z,64.76
2022-11-29T12:49:04.285Z,64.28
2022-11-29T12:51:57.843Z,63.56
2022-11-29T12:54:55.982Z,63.21
2022-11-29T12:57:48.384Z,62.53
2022-11-29T13:00:17.717Z,62.36
2022-11-29T13:03:14.842Z,60.89
2022-11-29T13:05:55.472Z,58.77
2022-11-29T13:08:52.819Z,57.66
2022-11-29T13:11:38.157Z,57.11
2022-11-29T13:17:30.598Z,55.51
2022-11-29T13:20:13.350Z,55.10
2022-11-29T13:22:50.881Z,55.66
2022-11-29T13:25:24.441Z,55.39
2022-11-29T13:28:11.544Z,54.37
2022-11-29T13:30:39.976Z,55.11
2022-11-29T13:33:24.816Z,55.77
2022-11-29T13:36:17.112Z,56.06
2022-11-29T13:39:07.789Z,57.29
2022-11-29T13:41:54.918Z,57.51
2022-11-29T13:44:27.273Z,58.33
2022-11-29T13:47:09.080Z,58.54
2022-11-29T13:50:04.017Z,59.74
2022-11-29T13:52:44.111Z,59.85
2022-11-29T13:55:11.347Z,59.97
2022-11-29T14:00:42.560Z,60.82
2022-11-29T14:03:21.052Z,60.63
2022-11-29T14:05:50.604Z,61.17
2022-11-29T14:08:23.965Z,61.17
2022-11-29T14:10:51.854Z,61.34
2022-11-29T14:13:18.801Z,61.77
2022-11-29T14:15:56.324Z,61.88
2022-11-29T14:18:40.532Z,61.71
2022-11-29T14:21:07.660Z,61.58
2022-11-29T14:23:41.674Z,61.39
2022-11-29T14:26:08.213Z,61.78
2022-11-29T14:28:34.768Z,61.78
2022-11-29T14:31:03.369Z,62.02
2022-11-29T14:33:39.862Z,62.55
2022-11-29T14:36:17.589Z,62.24
2022-11-29T14:39:05.847Z,62.96
2022-11-29T14:42:01.152Z,63.00
2022-11-29T14:44:30.655Z,62.70
2022-11-29T14:47:15.274Z,62.81
2022-11-29T14:49:45.399Z,63.01
2022-11-29T14:52:14.663Z,63.82
2022-11-29T14:55:04.194Z,64.53
2022-11-29T14:57:58.467Z,65.43
2022-11-29T15:00:39.634Z,66.24
2022-11-29T15:03:15.846Z,66.18
2022-11-29T15:05:46.222Z,66.91
2022-11-29T15:08:42.015Z,66.80
2022-11-29T15:11:16.264Z,67.21
2022-11-29T15:13:56.248Z,66.87
2022-11-29T15:16:53.185Z,66.95
2022-11-29T15:19:35.914Z,67.53
2022-11-29T15:22:28.673Z,67.96
2022-11-29T15:25:00.303Z,67.79
2022-11-29T15:27:27.192Z,67.92
2022-11-29T15:29:53.952Z,68.14
2022-11-29T15:32:27.312Z,68.33
2022-11-29T15:34:56.451Z,68.10
2022-11-29T15:37:44.612Z,68.22
2022-11-29T15:40:14.326Z,68.22
2022-11-29T15:42:44.060Z,68.07
2022-11-29T15:45:29.028Z,67.53
2022-11-29T15:48:09.398Z,67.61
2022-11-29T15:50:36.488Z,67.49
2022-11-29T15:53:07.079Z,67.59
2022-11-29T15:55:34.185Z,67.90
2022-11-29T15:58:08.555Z,67.97
2022-11-29T16:00:36.529Z,67.39
2022-11-29T16:03:05.855Z,67.89
2022-11-29T16:05:35.740Z,67.80
2022-11-29T16:08:14.982Z,67.78
2022-11-29T16:10:49.265Z,67.93
2022-11-29T16:13:31.753Z,67.81
2022-11-29T16:16:17.598Z,68.44
2022-11-29T16:18:46.256Z,68.55
2022-11-29T16:21:22.991Z,68.98
2022-11-29T16:23:49.788Z,68.78
2022-11-29T16:26:39.107Z,69.05
2022-11-29T16:29:15.565Z,69.14
2022-11-29T16:31:42.230Z,68.96
2022-11-29T16:34:17.734Z,69.40
2022-11-29T16:36:44.342Z,69.00
2022-11-29T16:39:22.821Z,68.77
2022-11-29T16:42:17.400Z,69.25
2022-11-29T16:44:49.102Z,69.13
2022-11-29T16:47:21.594Z,69.42
2022-11-29T16:50:16.413Z,69.88
2022-11-29T16:52:43.590Z,69.99
2022-11-29T16:55:10.304Z,69.53
2022-11-29T16:57:37.600Z,69.17
2022-11-29T17:00:30.366Z,68.78
2022-11-29T17:02:57.690Z,68.77
2022-11-29T17:05:24.374Z,68.48
2022-11-29T17:07:51.532Z,68.03
2022-11-29T17:10:22.735Z,68.55
2022-11-29T17:12:50.188Z,68.25
2022-11-29T17:15:17.460Z,68.06
2022-11-29T17:17:44.079Z,67.95
2022-11-29T17:20:12.798Z,68.05
2022-11-29T17:22:39.975Z,68.70
2022-11-29T17:25:07.189Z,67.95
2022-11-29T17:27:33.924Z,67.57
2022-11-29T17:30:00.606Z,67.45
2022-11-29T17:32:27.368Z,67.53
2022-11-29T17:34:54.257Z,67.37
2022-11-29T17:37:23.986Z,67.31
2022-11-29T17:39:50.695Z,67.66
2022-11-29T17:42:17.374Z,67.60
2022-11-29T17:44:43.986Z,67.37
2022-11-29T17:47:10.583Z,67.90
2022-11-29T17:49:37.163Z,67.09
2022-11-29T17:52:04.005Z,67.64
2022-11-29T17:54:33.033Z,67.30
2022-11-29T17:57:00.756Z,67.64
2022-11-29T17:59:27.467Z,67.40
2022-11-29T18:01:54.119Z,67.06
2022-11-29T18:04:21.380Z,66.61
2022-11-29T18:06:50.028Z,66.47
2022-11-29T18:09:18.618Z,66.29
2022-11-29T18:11:49.453Z,66.38
2022-11-29T18:14:20.175Z,66.19
2022-11-29T18:16:47.147Z,66.30
2022-11-29T18:19:19.990Z,66.51
2022-11-29T18:21:47.413Z,65.95
2022-11-29T18:24:13.996Z,66.67
2022-11-29T18:26:40.895Z,67.27
2022-11-29T18:29:08.620Z,66.73
2022-11-29T18:31:37.647Z,67.25
2022-11-29T18:34:13.022Z,67.12
2022-11-29T18:36:45.361Z,67.78
2022-11-29T18:39:19.015Z,68.38
2022-11-29T18:41:48.188Z,68.47
2022-11-29T18:44:16.684Z,68.52
2022-11-29T18:46:45.017Z,68.50
2022-11-29T18:49:15.535Z,68.83
2022-11-29T18:51:44.367Z,68.85
2022-11-29T18:54:11.423Z,69.44
2022-11-29T18:56:38.388Z,69.26
2022-11-29T18:59:08.557Z,69.12
2022-11-29T19:01:40.967Z,69.05
2022-11-29T19:04:18.972Z,68.46
2022-11-29T19:06:45.935Z,68.72
2022-11-29T19:09:15.659Z,68.69
2022-11-29T19:11:42.505Z,68.88
2022-11-29T19:14:11.764Z,68.54
2022-11-29T19:16:44.000Z,69.10
2022-11-29T19:19:11.692Z,68.96
2022-11-29T19:21:39.829Z,68.69
2022-11-29T19:24:13.424Z,68.71
2022-11-29T19:26:41.153Z,68.42
2022-11-29T19:29:07.713Z,68.58
2022-11-29T19:31:34.418Z,68.10
2022-11-29T19:34:01.091Z,68.40
2022-11-29T19:36:31.748Z,68.13
2022-11-29T19:39:01.451Z,68.25
2022-11-29T19:41:33.602Z,68.44
2022-11-29T19:44:03.113Z,68.56
2022-11-29T19:46:32.432Z,67.98
2022-11-29T19:49:00.088Z,67.95
2022-11-29T19:51:27.601Z,68.05
2022-11-29T19:53:56.315Z,67.51
2022-11-29T19:56:23.583Z,67.76
2022-11-29T19:58:51.329Z,67.89
2022-11-29T20:01:19.905Z,67.75
2022-11-29T20:03:46.696Z,68.31
2022-11-29T20:06:13.879Z,68.79
2022-11-29T20:08:41.688Z,68.10
2022-11-29T20:11:12.476Z,68.60
2022-11-29T20:13:41.203Z,68.29
2022-11-29T20:16:10.110Z,68.02
2022-11-29T20:18:39.332Z,67.77
2022-11-29T20:21:12.151Z,67.30
2022-11-29T20:23:39.860Z,67.20
2022-11-29T20:26:10.082Z,67.04
2022-11-29T20:28:36.761Z,67.04
2022-11-29T20:31:08.681Z,67.08
2022-11-29T20:33:35.746Z,67.01
2022-11-29T20:36:29.029Z,66.89
2022-11-29T20:39:07.184Z,66.68
2022-11-29T20:41:59.345Z,66.46
2022-11-29T20:44:53.656Z,66.60
2022-11-29T20:47:23.286Z,65.75
2022-11-29T20:49:50.914Z,66.50
2022-11-29T20:52:32.914Z,66.60
2022-11-29T20:54:59.580Z,66.56
2022-11-29T20:57:26.283Z,66.67
2022-11-29T20:59:52.920Z,66.81
2022-11-29T21:02:19.988Z,66.73
2022-11-29T21:04:46.872Z,67.00
2022-11-29T21:07:13.557Z,67.27
2022-11-29T21:09:48.091Z,68.00
2022-11-29T21:12:15.207Z,67.55
2022-11-29T21:14:42.895Z,67.64
2022-11-29T21:17:10.339Z,67.95
2022-11-29T21:19:37.253Z,67.78
2022-11-29T21:22:27.697Z,67.61
2022-11-29T21:25:32.677Z,68.13
2022-11-29T21:28:00.488Z,68.47
2022-11-29T21:30:27.324Z,68.51
2022-11-29T21:32:54.208Z,68.66
2022-11-29T21:35:20.764Z,69.03
2022-11-29T21:37:47.642Z,69.13
2022-11-29T21:40:15.101Z,68.91
2022-11-29T21:42:41.871Z,69.52
2022-11-29T21:45:14.934Z,69.71
2022-11-29T21:47:43.190Z,70.10
2022-11-29T21:50:10.752Z,69.79
2022-11-29T21:52:37.382Z,70.37
2022-11-29T21:55:04.254Z,70.58
2022-11-29T21:57:30.852Z,70.35
2022-11-29T21:59:57.443Z,70.57
2022-11-29T22:02:24.132Z,70.72
2022-11-29T22:04:50.748Z,70.61
2022-11-29T22:07:17.506Z,70.33
2022-11-29T22:09:44.076Z,70.64
2022-11-29T22:12:32.559Z,70.38
2022-11-29T22:14:57.333Z,70.45
2022-11-29T22:17:23.885Z,70.20
2022-11-29T22:19:50.468Z,70.44
2022-11-29T22:22:17.322Z,70.60
2022-11-29T22:24:44.184Z,70.54
2022-11-29T22:27:12.310Z,70.50
2022-11-29T22:29:39.012Z,70.39
2022-11-29T22:32:06.183Z,70.35
2022-11-29T22:34:32.904Z,70.58
2022-11-29T22:36:59.702Z,70.38
2022-11-29T22:39:26.344Z,70.70
2022-11-29T22:41:54.998Z,70.95
2022-11-29T22:44:23.570Z,71.31
2022-11-29T22:46:51.025Z,72.12
2022-11-29T22:49:17.718Z,72.01
2022-11-29T22:51:44.449Z,72.01
2022-11-29T22:54:11.732Z,72.33
2022-11-29T22:56:40.339Z,72.55
2022-11-29T22:59:07.271Z,72.95
2022-11-29T23:01:35.676Z,72.87
2022-11-29T23:04:04.845Z,72.59
2022-11-29T23:06:42.667Z,72.60
2022-11-29T23:09:22.025Z,72.72
2022-11-29T23:11:53.950Z,72.99
2022-11-29T23:14:21.992Z,72.73
2022-11-29T23:16:48.793Z,72.59
2022-11-29T23:19:16.178Z,72.72
2022-11-29T23:21:45.401Z,72.90
2022-11-29T23:24:12.828Z,73.10
2022-11-29T23:26:42.468Z,72.93
2022-11-29T23:29:12.072Z,73.23
2022-11-29T23:31:39.404Z,73.32
2022-11-29T23:34:06.224Z,73.17
2022-11-29T23:36:32.938Z,73.59
2022-11-29T23:38:59.519Z,73.58
2022-11-29T23:41:26.088Z,73.44
2022-11-29T23:43:52.648Z,73.71
2022-11-29T23:46:22.173Z,73.77
2022-11-29T23:48:48.812Z,73.49
2022-11-29T23:51:16.297Z,74.20
2022-11-29T23:53:43.462Z,74.21
2022-11-29T23:56:12.480Z,74.49
2022-11-29T23:58:39.264Z,74.80
